sensor_id;sensor_type;location;lat;lon;timestamp;P1;durP1;ratioP1;P2;durP2;ratioP2
4704;SDS011;2366;51.332;6.610;2022-12-29T00:00:52;0.80;;;0.80;;
4704;SDS011;2366;51.332;6.610;2022-12-29T00:03:17;1.30;;;0.70;;
4704;SDS011;2366;51.332;6.610;2022-12-29T00:05:42;1.07;;;0.97;;
4704;SDS011;2366;51.332;6.610;2022-12-29T00:08:07;2.03;;;0.90;;
4704;SDS011;2366;51.332;6.610;2022-12-29T00:10:33;0.70;;;0.70;;
4704;SDS011;2366;51.332;6.610;2022-12-29T00:12:58;1.30;;;0.80;;
4704;SDS011;2366;51.332;6.610;2022-12-29T00:15:42;2.05;;;0.75;;
4704;SDS011;2366;51.332;6.610;2022-12-29T00:18:07;0.63;;;0.63;;
4704;SDS011;2366;51.332;6.610;2022-12-29T00:20:33;0.50;;;0.50;;
4704;SDS011;2366;51.332;6.610;2022-12-29T00:23:36;1.50;;;0.60;;
4704;SDS011;2366;51.332;6.610;2022-12-29T00:26:19;0.60;;;0.55;;
4704;SDS011;2366;51.332;6.610;2022-12-29T00:29:03;0.70;;;0.70;;
4704;SDS011;2366;51.332;6.610;2022-12-29T00:31:47;0.60;;;0.60;;
4704;SDS011;2366;51.332;6.610;2022-12-29T00:34:31;1.60;;;0.70;;
4704;SDS011;2366;51.332;6.610;2022-12-29T00:37:15;1.20;;;0.60;;
4704;SDS011;2366;51.332;6.610;2022-12-29T00:39:40;0.77;;;0.77;;
4704;SDS011;2366;51.332;6.610;2022-12-29T00:42:24;0.88;;;0.70;;
4704;SDS011;2366;51.332;6.610;2022-12-29T00:45:08;0.98;;;0.98;;
4704;SDS011;2366;51.332;6.610;2022-12-29T00:47:33;0.83;;;0.83;;
4704;SDS011;2366;51.332;6.610;2022-12-29T00:49:59;0.50;;;0.50;;
4704;SDS011;2366;51.332;6.610;2022-12-29T00:52:24;1.83;;;0.97;;
4704;SDS011;2366;51.332;6.610;2022-12-29T00:54:49;0.57;;;0.57;;
4704;SDS011;2366;51.332;6.610;2022-12-29T00:57:15;0.60;;;0.60;;
4704;SDS011;2366;51.332;6.610;2022-12-29T00:59:41;0.50;;;0.50;;
4704;SDS011;2366;51.332;6.610;2022-12-29T01:02:07;1.92;;;0.90;;
4704;SDS011;2366;51.332;6.610;2022-12-29T01:04:33;0.82;;;0.82;;
4704;SDS011;2366;51.332;6.610;2022-12-29T01:06:59;2.97;;;0.77;;
4704;SDS011;2366;51.332;6.610;2022-12-29T01:09:24;0.50;;;0.50;;
4704;SDS011;2366;51.332;6.610;2022-12-29T01:12:08;0.77;;;0.68;;
4704;SDS011;2366;51.332;6.610;2022-12-29T01:14:35;0.80;;;0.60;;
4704;SDS011;2366;51.332;6.610;2022-12-29T01:17:01;0.75;;;0.65;;
4704;SDS011;2366;51.332;6.610;2022-12-29T01:19:26;0.63;;;0.60;;
4704;SDS011;2366;51.332;6.610;2022-12-29T01:21:52;0.60;;;0.60;;
4704;SDS011;2366;51.332;6.610;2022-12-29T01:24:18;2.73;;;0.77;;
4704;SDS011;2366;51.332;6.610;2022-12-29T01:26:45;0.63;;;0.63;;
4704;SDS011;2366;51.332;6.610;2022-12-29T01:29:11;0.50;;;0.50;;
4704;SDS011;2366;51.332;6.610;2022-12-29T01:31:36;0.50;;;0.50;;
4704;SDS011;2366;51.332;6.610;2022-12-29T01:34:02;0.90;;;0.57;;
4704;SDS011;2366;51.332;6.610;2022-12-29T01:36:28;0.70;;;0.50;;
4704;SDS011;2366;51.332;6.610;2022-12-29T01:38:53;0.60;;;0.60;;
4704;SDS011;2366;51.332;6.610;2022-12-29T01:41:18;1.07;;;0.80;;
4704;SDS011;2366;51.332;6.610;2022-12-29T01:43:45;0.70;;;0.70;;
4704;SDS011;2366;51.332;6.610;2022-12-29T01:46:26;0.50;;;0.50;;
4704;SDS011;2366;51.332;6.610;2022-12-29T01:51:38;1.67;;;0.65;;
4704;SDS011;2366;51.332;6.610;2022-12-29T01:54:09;0.50;;;0.50;;
4704;SDS011;2366;51.332;6.610;2022-12-29T01:56:41;0.85;;;0.55;;
4704;SDS011;2366;51.332;6.610;2022-12-29T01:59:08;1.60;;;0.47;;
4704;SDS011;2366;51.332;6.610;2022-12-29T02:01:38;0.50;;;0.50;;
4704;SDS011;2366;51.332;6.610;2022-12-29T02:04:03;2.20;;;0.50;;
4704;SDS011;2366;51.332;6.610;2022-12-29T02:06:31;1.00;;;0.40;;
4704;SDS011;2366;51.332;6.610;2022-12-29T02:09:00;1.27;;;0.68;;
4704;SDS011;2366;51.332;6.610;2022-12-29T02:11:26;2.60;;;1.17;;
4704;SDS011;2366;51.332;6.610;2022-12-29T02:13:54;0.75;;;0.65;;
4704;SDS011;2366;51.332;6.610;2022-12-29T02:33:11;3.38;;;1.30;;
4704;SDS011;2366;51.332;6.610;2022-12-29T02:35:48;1.75;;;0.60;;
4704;SDS011;2366;51.332;6.610;2022-12-29T02:38:31;0.73;;;0.70;;
4704;SDS011;2366;51.332;6.610;2022-12-29T02:41:10;2.00;;;0.80;;
4704;SDS011;2366;51.332;6.610;2022-12-29T02:43:52;1.45;;;0.65;;
4704;SDS011;2366;51.332;6.610;2022-12-29T02:46:28;2.75;;;0.70;;
4704;SDS011;2366;51.332;6.610;2022-12-29T02:51:33;1.17;;;1.08;;
4704;SDS011;2366;51.332;6.610;2022-12-29T02:54:04;0.90;;;0.70;;
4704;SDS011;2366;51.332;6.610;2022-12-29T02:56:48;1.45;;;0.70;;
4704;SDS011;2366;51.332;6.610;2022-12-29T02:59:14;1.43;;;1.07;;
4704;SDS011;2366;51.332;6.610;2022-12-29T03:01:48;1.50;;;0.90;;
4704;SDS011;2366;51.332;6.610;2022-12-29T03:07:32;3.92;;;0.95;;
4704;SDS011;2366;51.332;6.610;2022-12-29T03:12:54;0.73;;;0.57;;
4704;SDS011;2366;51.332;6.610;2022-12-29T03:15:46;2.55;;;0.93;;
4704;SDS011;2366;51.332;6.610;2022-12-29T03:21:18;2.58;;;0.70;;
4704;SDS011;2366;51.332;6.610;2022-12-29T03:24:12;1.83;;;1.00;;
4704;SDS011;2366;51.332;6.610;2022-12-29T03:26:38;2.15;;;0.60;;
4704;SDS011;2366;51.332;6.610;2022-12-29T03:29:06;2.25;;;0.60;;
4704;SDS011;2366;51.332;6.610;2022-12-29T03:31:33;2.20;;;0.85;;
4704;SDS011;2366;51.332;6.610;2022-12-29T03:34:00;0.93;;;0.70;;
4704;SDS011;2366;51.332;6.610;2022-12-29T03:36:30;0.73;;;0.50;;
4704;SDS011;2366;51.332;6.610;2022-12-29T03:39:05;1.55;;;1.13;;
4704;SDS011;2366;51.332;6.610;2022-12-29T03:41:36;3.53;;;1.25;;
4704;SDS011;2366;51.332;6.610;2022-12-29T03:44:08;6.13;;;0.80;;
4704;SDS011;2366;51.332;6.610;2022-12-29T03:46:33;2.00;;;1.10;;
4704;SDS011;2366;51.332;6.610;2022-12-29T03:48:58;0.80;;;0.80;;
4704;SDS011;2366;51.332;6.610;2022-12-29T03:51:24;2.93;;;0.77;;
4704;SDS011;2366;51.332;6.610;2022-12-29T03:53:49;0.97;;;0.67;;
4704;SDS011;2366;51.332;6.610;2022-12-29T03:56:14;0.77;;;0.70;;
4704;SDS011;2366;51.332;6.610;2022-12-29T03:58:40;1.07;;;0.67;;
4704;SDS011;2366;51.332;6.610;2022-12-29T04:01:05;1.37;;;0.80;;
4704;SDS011;2366;51.332;6.610;2022-12-29T04:03:30;0.80;;;0.63;;
4704;SDS011;2366;51.332;6.610;2022-12-29T04:05:56;1.23;;;0.50;;
4704;SDS011;2366;51.332;6.610;2022-12-29T04:08:21;0.50;;;0.40;;
4704;SDS011;2366;51.332;6.610;2022-12-29T04:10:47;1.33;;;0.57;;
4704;SDS011;2366;51.332;6.610;2022-12-29T04:13:14;1.52;;;0.60;;
4704;SDS011;2366;51.332;6.610;2022-12-29T04:15:39;0.70;;;0.50;;
4704;SDS011;2366;51.332;6.610;2022-12-29T04:18:04;1.40;;;0.70;;
4704;SDS011;2366;51.332;6.610;2022-12-29T04:20:30;0.63;;;0.60;;
4704;SDS011;2366;51.332;6.610;2022-12-29T04:23:14;3.30;;;0.80;;
4704;SDS011;2366;51.332;6.610;2022-12-29T04:25:39;0.47;;;0.47;;
4704;SDS011;2366;51.332;6.610;2022-12-29T04:28:04;2.23;;;0.80;;
4704;SDS011;2366;51.332;6.610;2022-12-29T04:30:30;0.90;;;0.70;;
4704;SDS011;2366;51.332;6.610;2022-12-29T04:32:55;1.00;;;0.70;;
4704;SDS011;2366;51.332;6.610;2022-12-29T04:35:20;1.03;;;0.80;;
4704;SDS011;2366;51.332;6.610;2022-12-29T04:37:46;2.03;;;0.70;;
4704;SDS011;2366;51.332;6.610;2022-12-29T04:40:11;2.00;;;1.23;;
4704;SDS011;2366;51.332;6.610;2022-12-29T04:42:37;1.20;;;0.60;;
4704;SDS011;2366;51.332;6.610;2022-12-29T04:45:02;1.17;;;0.73;;
4704;SDS011;2366;51.332;6.610;2022-12-29T04:47:28;0.93;;;0.83;;
4704;SDS011;2366;51.332;6.610;2022-12-29T04:49:53;0.80;;;0.60;;
4704;SDS011;2366;51.332;6.610;2022-12-29T04:52:18;0.70;;;0.70;;
4704;SDS011;2366;51.332;6.610;2022-12-29T04:54:44;0.90;;;0.50;;
4704;SDS011;2366;51.332;6.610;2022-12-29T04:57:09;4.67;;;1.00;;
4704;SDS011;2366;51.332;6.610;2022-12-29T04:59:34;4.20;;;0.80;;
4704;SDS011;2366;51.332;6.610;2022-12-29T05:02:00;1.57;;;0.60;;
4704;SDS011;2366;51.332;6.610;2022-12-29T05:04:25;5.80;;;0.67;;
4704;SDS011;2366;51.332;6.610;2022-12-29T05:06:50;0.70;;;0.70;;
4704;SDS011;2366;51.332;6.610;2022-12-29T05:09:16;1.33;;;0.70;;
4704;SDS011;2366;51.332;6.610;2022-12-29T05:11:41;2.60;;;0.60;;
4704;SDS011;2366;51.332;6.610;2022-12-29T05:14:06;2.40;;;0.70;;
4704;SDS011;2366;51.332;6.610;2022-12-29T05:16:32;3.17;;;1.23;;
4704;SDS011;2366;51.332;6.610;2022-12-29T05:18:57;1.90;;;1.17;;
4704;SDS011;2366;51.332;6.610;2022-12-29T05:21:22;1.23;;;0.60;;
4704;SDS011;2366;51.332;6.610;2022-12-29T05:23:48;2.47;;;0.90;;
4704;SDS011;2366;51.332;6.610;2022-12-29T05:26:13;0.67;;;0.63;;
4704;SDS011;2366;51.332;6.610;2022-12-29T05:28:38;0.80;;;0.60;;
4704;SDS011;2366;51.332;6.610;2022-12-29T05:31:04;1.33;;;0.73;;
4704;SDS011;2366;51.332;6.610;2022-12-29T05:33:29;1.43;;;0.60;;
4704;SDS011;2366;51.332;6.610;2022-12-29T05:35:55;1.63;;;0.60;;
4704;SDS011;2366;51.332;6.610;2022-12-29T05:38:20;0.47;;;0.40;;
4704;SDS011;2366;51.332;6.610;2022-12-29T05:40:45;2.93;;;0.97;;
4704;SDS011;2366;51.332;6.610;2022-12-29T05:43:11;4.00;;;0.70;;
4704;SDS011;2366;51.332;6.610;2022-12-29T05:45:36;1.27;;;0.70;;
4704;SDS011;2366;51.332;6.610;2022-12-29T05:48:01;1.07;;;0.80;;
4704;SDS011;2366;51.332;6.610;2022-12-29T05:50:27;2.00;;;0.90;;
4704;SDS011;2366;51.332;6.610;2022-12-29T05:52:52;3.73;;;0.90;;
4704;SDS011;2366;51.332;6.610;2022-12-29T05:55:18;2.00;;;1.07;;
4704;SDS011;2366;51.332;6.610;2022-12-29T05:57:43;2.00;;;0.90;;
4704;SDS011;2366;51.332;6.610;2022-12-29T06:00:09;0.93;;;0.73;;
4704;SDS011;2366;51.332;6.610;2022-12-29T06:02:35;4.25;;;0.88;;
4704;SDS011;2366;51.332;6.610;2022-12-29T06:05:00;2.10;;;1.17;;
4704;SDS011;2366;51.332;6.610;2022-12-29T06:07:25;0.77;;;0.60;;
4704;SDS011;2366;51.332;6.610;2022-12-29T06:09:51;2.10;;;0.67;;
4704;SDS011;2366;51.332;6.610;2022-12-29T06:12:16;2.10;;;0.90;;
4704;SDS011;2366;51.332;6.610;2022-12-29T06:14:41;0.80;;;0.70;;
4704;SDS011;2366;51.332;6.610;2022-12-29T06:17:07;3.10;;;0.63;;
4704;SDS011;2366;51.332;6.610;2022-12-29T06:19:32;2.40;;;1.33;;
4704;SDS011;2366;51.332;6.610;2022-12-29T06:21:58;5.20;;;1.03;;
4704;SDS011;2366;51.332;6.610;2022-12-29T06:24:23;2.20;;;0.73;;
4704;SDS011;2366;51.332;6.610;2022-12-29T06:26:48;3.13;;;2.37;;
4704;SDS011;2366;51.332;6.610;2022-12-29T06:29:14;0.60;;;0.60;;
4704;SDS011;2366;51.332;6.610;2022-12-29T06:31:43;2.15;;;0.60;;
4704;SDS011;2366;51.332;6.610;2022-12-29T06:34:10;4.05;;;1.10;;
4704;SDS011;2366;51.332;6.610;2022-12-29T06:36:37;2.88;;;1.02;;
4704;SDS011;2366;51.332;6.610;2022-12-29T06:39:03;2.25;;;1.00;;
4704;SDS011;2366;51.332;6.610;2022-12-29T06:41:28;1.07;;;0.60;;
4704;SDS011;2366;51.332;6.610;2022-12-29T06:43:53;3.37;;;1.10;;
4704;SDS011;2366;51.332;6.610;2022-12-29T06:46:19;2.60;;;1.10;;
4704;SDS011;2366;51.332;6.610;2022-12-29T06:48:44;3.27;;;1.23;;
4704;SDS011;2366;51.332;6.610;2022-12-29T06:51:09;2.60;;;0.70;;
4704;SDS011;2366;51.332;6.610;2022-12-29T06:53:35;2.67;;;1.70;;
4704;SDS011;2366;51.332;6.610;2022-12-29T06:56:00;6.80;;;0.87;;
4704;SDS011;2366;51.332;6.610;2022-12-29T06:58:25;6.53;;;1.27;;
4704;SDS011;2366;51.332;6.610;2022-12-29T07:00:51;2.70;;;1.17;;
4704;SDS011;2366;51.332;6.610;2022-12-29T07:03:16;8.77;;;1.57;;
4704;SDS011;2366;51.332;6.610;2022-12-29T07:05:41;3.60;;;1.00;;
4704;SDS011;2366;51.332;6.610;2022-12-29T07:08:07;4.23;;;1.80;;
4704;SDS011;2366;51.332;6.610;2022-12-29T07:10:32;3.90;;;1.80;;
4704;SDS011;2366;51.332;6.610;2022-12-29T07:12:57;3.17;;;0.90;;
4704;SDS011;2366;51.332;6.610;2022-12-29T07:15:23;5.30;;;0.97;;
4704;SDS011;2366;51.332;6.610;2022-12-29T07:17:48;2.77;;;1.17;;
4704;SDS011;2366;51.332;6.610;2022-12-29T07:20:14;2.25;;;1.00;;
4704;SDS011;2366;51.332;6.610;2022-12-29T07:22:40;2.17;;;0.70;;
4704;SDS011;2366;51.332;6.610;2022-12-29T07:25:06;5.97;;;1.70;;
4704;SDS011;2366;51.332;6.610;2022-12-29T07:27:32;4.20;;;1.50;;
4704;SDS011;2366;51.332;6.610;2022-12-29T07:29:57;4.30;;;1.33;;
4704;SDS011;2366;51.332;6.610;2022-12-29T07:32:23;2.50;;;0.97;;
4704;SDS011;2366;51.332;6.610;2022-12-29T07:34:48;2.00;;;0.90;;
4704;SDS011;2366;51.332;6.610;2022-12-29T07:37:16;9.00;;;1.90;;
4704;SDS011;2366;51.332;6.610;2022-12-29T07:39:42;8.68;;;1.27;;
4704;SDS011;2366;51.332;6.610;2022-12-29T07:42:08;1.90;;;1.00;;
4704;SDS011;2366;51.332;6.610;2022-12-29T07:44:33;3.47;;;1.33;;
4704;SDS011;2366;51.332;6.610;2022-12-29T07:46:59;10.20;;;1.13;;
4704;SDS011;2366;51.332;6.610;2022-12-29T07:49:24;3.53;;;1.07;;
4704;SDS011;2366;51.332;6.610;2022-12-29T07:51:49;4.30;;;1.60;;
4704;SDS011;2366;51.332;6.610;2022-12-29T07:54:15;3.23;;;0.87;;
4704;SDS011;2366;51.332;6.610;2022-12-29T07:56:43;5.35;;;1.50;;
4704;SDS011;2366;51.332;6.610;2022-12-29T07:59:08;1.37;;;1.10;;
4704;SDS011;2366;51.332;6.610;2022-12-29T08:01:34;2.20;;;1.07;;
4704;SDS011;2366;51.332;6.610;2022-12-29T08:03:59;12.40;;;1.73;;
4704;SDS011;2366;51.332;6.610;2022-12-29T08:06:24;4.07;;;1.00;;
4704;SDS011;2366;51.332;6.610;2022-12-29T08:08:50;6.20;;;1.27;;
4704;SDS011;2366;51.332;6.610;2022-12-29T08:11:15;3.63;;;1.40;;
4704;SDS011;2366;51.332;6.610;2022-12-29T08:13:40;7.60;;;2.40;;
4704;SDS011;2366;51.332;6.610;2022-12-29T08:16:06;7.63;;;1.10;;
4704;SDS011;2366;51.332;6.610;2022-12-29T08:18:31;5.27;;;1.60;;
4704;SDS011;2366;51.332;6.610;2022-12-29T08:21:00;6.93;;;1.30;;
4704;SDS011;2366;51.332;6.610;2022-12-29T08:23:27;4.10;;;1.33;;
4704;SDS011;2366;51.332;6.610;2022-12-29T08:26:01;3.00;;;0.93;;
4704;SDS011;2366;51.332;6.610;2022-12-29T08:28:28;6.53;;;1.33;;
4704;SDS011;2366;51.332;6.610;2022-12-29T08:30:57;3.38;;;1.17;;
4704;SDS011;2366;51.332;6.610;2022-12-29T08:33:23;4.20;;;1.23;;
4704;SDS011;2366;51.332;6.610;2022-12-29T08:35:49;7.50;;;1.43;;
4704;SDS011;2366;51.332;6.610;2022-12-29T08:38:14;6.93;;;1.37;;
4704;SDS011;2366;51.332;6.610;2022-12-29T08:40:39;3.53;;;1.63;;
4704;SDS011;2366;51.332;6.610;2022-12-29T08:43:05;6.73;;;1.73;;
4704;SDS011;2366;51.332;6.610;2022-12-29T08:45:30;4.20;;;1.40;;
4704;SDS011;2366;51.332;6.610;2022-12-29T08:47:56;2.40;;;0.90;;
4704;SDS011;2366;51.332;6.610;2022-12-29T08:50:21;9.07;;;1.57;;
4704;SDS011;2366;51.332;6.610;2022-12-29T08:52:46;1.73;;;0.87;;
4704;SDS011;2366;51.332;6.610;2022-12-29T08:55:12;6.93;;;1.77;;
4704;SDS011;2366;51.332;6.610;2022-12-29T08:57:37;6.90;;;1.53;;
4704;SDS011;2366;51.332;6.610;2022-12-29T09:00:03;8.33;;;2.30;;
4704;SDS011;2366;51.332;6.610;2022-12-29T09:02:30;5.70;;;1.30;;
4704;SDS011;2366;51.332;6.610;2022-12-29T09:04:56;2.97;;;1.10;;
4704;SDS011;2366;51.332;6.610;2022-12-29T09:07:22;6.50;;;1.00;;
4704;SDS011;2366;51.332;6.610;2022-12-29T09:09:48;7.93;;;1.70;;
4704;SDS011;2366;51.332;6.610;2022-12-29T09:12:14;4.00;;;1.43;;
4704;SDS011;2366;51.332;6.610;2022-12-29T09:14:40;4.88;;;1.20;;
4704;SDS011;2366;51.332;6.610;2022-12-29T09:17:07;5.47;;;1.80;;
4704;SDS011;2366;51.332;6.610;2022-12-29T09:19:51;6.57;;;1.27;;
4704;SDS011;2366;51.332;6.610;2022-12-29T09:22:17;3.23;;;1.13;;
4704;SDS011;2366;51.332;6.610;2022-12-29T09:24:42;5.73;;;1.13;;
4704;SDS011;2366;51.332;6.610;2022-12-29T09:27:07;11.83;;;2.10;;
4704;SDS011;2366;51.332;6.610;2022-12-29T09:29:32;4.17;;;1.30;;
4704;SDS011;2366;51.332;6.610;2022-12-29T09:31:58;4.30;;;1.40;;
4704;SDS011;2366;51.332;6.610;2022-12-29T09:34:23;8.90;;;1.57;;
4704;SDS011;2366;51.332;6.610;2022-12-29T09:36:48;3.03;;;1.40;;
4704;SDS011;2366;51.332;6.610;2022-12-29T09:39:14;6.07;;;1.87;;
4704;SDS011;2366;51.332;6.610;2022-12-29T09:42:27;1.63;;;1.10;;
4704;SDS011;2366;51.332;6.610;2022-12-29T09:47:21;3.20;;;1.50;;
4704;SDS011;2366;51.332;6.610;2022-12-29T09:49:54;3.20;;;1.20;;
4704;SDS011;2366;51.332;6.610;2022-12-29T09:52:31;13.68;;;1.45;;
4704;SDS011;2366;51.332;6.610;2022-12-29T09:55:02;6.40;;;1.30;;
4704;SDS011;2366;51.332;6.610;2022-12-29T09:57:45;5.60;;;1.35;;
4704;SDS011;2366;51.332;6.610;2022-12-29T10:00:19;2.33;;;1.75;;
4704;SDS011;2366;51.332;6.610;2022-12-29T10:02:48;12.77;;;1.90;;
4704;SDS011;2366;51.332;6.610;2022-12-29T10:08:04;4.93;;;1.10;;
4704;SDS011;2366;51.332;6.610;2022-12-29T10:13:13;4.60;;;1.52;;
4704;SDS011;2366;51.332;6.610;2022-12-29T10:23:59;12.88;;;2.10;;
4704;SDS011;2366;51.332;6.610;2022-12-29T10:26:31;5.95;;;1.20;;
4704;SDS011;2366;51.332;6.610;2022-12-29T10:29:05;13.68;;;1.60;;
4704;SDS011;2366;51.332;6.610;2022-12-29T10:31:42;4.40;;;1.45;;
4704;SDS011;2366;51.332;6.610;2022-12-29T10:34:14;9.25;;;1.60;;
4704;SDS011;2366;51.332;6.610;2022-12-29T10:36:44;13.02;;;1.88;;
4704;SDS011;2366;51.332;6.610;2022-12-29T10:41:44;9.18;;;1.40;;
4704;SDS011;2366;51.332;6.610;2022-12-29T10:44:14;5.00;;;1.25;;
4704;SDS011;2366;51.332;6.610;2022-12-29T10:46:42;12.05;;;1.40;;
4704;SDS011;2366;51.332;6.610;2022-12-29T10:49:14;14.52;;;2.60;;
4704;SDS011;2366;51.332;6.610;2022-12-29T10:51:42;8.70;;;2.00;;
4704;SDS011;2366;51.332;6.610;2022-12-29T10:56:41;4.93;;;2.00;;
4704;SDS011;2366;51.332;6.610;2022-12-29T10:59:18;15.50;;;1.52;;
4704;SDS011;2366;51.332;6.610;2022-12-29T11:01:51;8.65;;;1.45;;
4704;SDS011;2366;51.332;6.610;2022-12-29T11:07:15;6.88;;;2.00;;
4704;SDS011;2366;51.332;6.610;2022-12-29T11:09:43;15.65;;;1.92;;
4704;SDS011;2366;51.332;6.610;2022-12-29T11:12:17;2.75;;;1.80;;
4704;SDS011;2366;51.332;6.610;2022-12-29T11:14:54;9.75;;;1.50;;
4704;SDS011;2366;51.332;6.610;2022-12-29T11:17:27;8.00;;;1.48;;
4704;SDS011;2366;51.332;6.610;2022-12-29T11:19:52;8.50;;;2.10;;
4704;SDS011;2366;51.332;6.610;2022-12-29T11:22:22;15.37;;;2.53;;
4704;SDS011;2366;51.332;6.610;2022-12-29T11:24:52;7.47;;;1.65;;
4704;SDS011;2366;51.332;6.610;2022-12-29T11:29:48;12.90;;;1.88;;
4704;SDS011;2366;51.332;6.610;2022-12-29T11:32:21;10.38;;;1.63;;
4704;SDS011;2366;51.332;6.610;2022-12-29T11:34:49;6.40;;;1.48;;
4704;SDS011;2366;51.332;6.610;2022-12-29T11:37:18;9.50;;;2.30;;
4704;SDS011;2366;51.332;6.610;2022-12-29T11:39:55;2.65;;;1.10;;
4704;SDS011;2366;51.332;6.610;2022-12-29T11:42:40;6.72;;;1.35;;
4704;SDS011;2366;51.332;6.610;2022-12-29T11:45:15;9.43;;;1.88;;
4704;SDS011;2366;51.332;6.610;2022-12-29T11:47:45;7.55;;;1.42;;
4704;SDS011;2366;51.332;6.610;2022-12-29T11:50:18;18.60;;;2.08;;
4704;SDS011;2366;51.332;6.610;2022-12-29T11:52:46;10.52;;;1.50;;
4704;SDS011;2366;51.332;6.610;2022-12-29T11:55:18;6.40;;;1.00;;
4704;SDS011;2366;51.332;6.610;2022-12-29T11:57:47;9.90;;;1.60;;
4704;SDS011;2366;51.332;6.610;2022-12-29T12:02:44;5.60;;;2.85;;
4704;SDS011;2366;51.332;6.610;2022-12-29T12:10:50;7.07;;;1.50;;
4704;SDS011;2366;51.332;6.610;2022-12-29T12:13:25;7.32;;;1.23;;
4704;SDS011;2366;51.332;6.610;2022-12-29T12:16:08;9.43;;;1.90;;
4704;SDS011;2366;51.332;6.610;2022-12-29T12:18:41;7.35;;;1.60;;
4704;SDS011;2366;51.332;6.610;2022-12-29T12:21:15;5.70;;;2.40;;
4704;SDS011;2366;51.332;6.610;2022-12-29T12:24:00;2.55;;;1.15;;
4704;SDS011;2366;51.332;6.610;2022-12-29T12:26:40;10.15;;;2.28;;
4704;SDS011;2366;51.332;6.610;2022-12-29T12:29:16;9.10;;;2.80;;
4704;SDS011;2366;51.332;6.610;2022-12-29T12:31:51;4.50;;;1.33;;
4704;SDS011;2366;51.332;6.610;2022-12-29T12:34:35;11.80;;;2.22;;
4704;SDS011;2366;51.332;6.610;2022-12-29T12:43:12;5.85;;;1.42;;
4704;SDS011;2366;51.332;6.610;2022-12-29T12:45:45;8.50;;;1.88;;
4704;SDS011;2366;51.332;6.610;2022-12-29T12:51:00;5.70;;;2.25;;
4704;SDS011;2366;51.332;6.610;2022-12-29T12:56:11;13.00;;;2.85;;
4704;SDS011;2366;51.332;6.610;2022-12-29T13:02:08;7.75;;;1.45;;
4704;SDS011;2366;51.332;6.610;2022-12-29T13:07:40;13.23;;;2.20;;
4704;SDS011;2366;51.332;6.610;2022-12-29T13:10:20;8.25;;;1.80;;
4704;SDS011;2366;51.332;6.610;2022-12-29T13:12:51;10.48;;;1.40;;
4704;SDS011;2366;51.332;6.610;2022-12-29T13:18:23;4.03;;;1.33;;
4704;SDS011;2366;51.332;6.610;2022-12-29T13:35:17;5.72;;;1.52;;
4704;SDS011;2366;51.332;6.610;2022-12-29T13:37:49;5.60;;;1.17;;
4704;SDS011;2366;51.332;6.610;2022-12-29T13:40:21;2.45;;;1.65;;
4704;SDS011;2366;51.332;6.610;2022-12-29T13:42:50;7.95;;;1.30;;
4704;SDS011;2366;51.332;6.610;2022-12-29T13:45:18;14.10;;;1.67;;
4704;SDS011;2366;51.332;6.610;2022-12-29T13:47:55;5.75;;;1.55;;
4704;SDS011;2366;51.332;6.610;2022-12-29T13:50:40;5.72;;;2.22;;
4704;SDS011;2366;51.332;6.610;2022-12-29T14:01:39;4.10;;;1.90;;
4704;SDS011;2366;51.332;6.610;2022-12-29T14:04:27;13.48;;;2.42;;
4704;SDS011;2366;51.332;6.610;2022-12-29T14:07:04;14.45;;;2.58;;
4704;SDS011;2366;51.332;6.610;2022-12-29T14:17:35;5.88;;;1.48;;
4704;SDS011;2366;51.332;6.610;2022-12-29T14:20:01;4.00;;;1.48;;
4704;SDS011;2366;51.332;6.610;2022-12-29T14:22:27;3.10;;;1.35;;
4704;SDS011;2366;51.332;6.610;2022-12-29T14:24:54;9.23;;;2.70;;
4704;SDS011;2366;51.332;6.610;2022-12-29T14:29:45;3.70;;;1.53;;
4704;SDS011;2366;51.332;6.610;2022-12-29T14:34:49;5.93;;;2.20;;
4704;SDS011;2366;51.332;6.610;2022-12-29T14:39:46;5.68;;;2.22;;
4704;SDS011;2366;51.332;6.610;2022-12-29T14:42:15;5.23;;;1.60;;
4704;SDS011;2366;51.332;6.610;2022-12-29T14:47:22;4.72;;;1.48;;
4704;SDS011;2366;51.332;6.610;2022-12-29T14:49:54;8.38;;;1.60;;
4704;SDS011;2366;51.332;6.610;2022-12-29T14:52:23;6.00;;;1.47;;
4704;SDS011;2366;51.332;6.610;2022-12-29T14:54:53;8.13;;;1.35;;
4704;SDS011;2366;51.332;6.610;2022-12-29T14:59:53;14.60;;;1.40;;
4704;SDS011;2366;51.332;6.610;2022-12-29T15:02:23;4.53;;;1.63;;
4704;SDS011;2366;51.332;6.610;2022-12-29T15:04:51;6.85;;;1.88;;
4704;SDS011;2366;51.332;6.610;2022-12-29T15:07:23;8.60;;;1.85;;
4704;SDS011;2366;51.332;6.610;2022-12-29T15:09:52;2.87;;;1.70;;
4704;SDS011;2366;51.332;6.610;2022-12-29T15:12:35;5.70;;;1.83;;
4704;SDS011;2366;51.332;6.610;2022-12-29T15:15:27;5.57;;;1.73;;
4704;SDS011;2366;51.332;6.610;2022-12-29T15:17:53;5.55;;;1.73;;
4704;SDS011;2366;51.332;6.610;2022-12-29T15:20:29;3.30;;;1.30;;
4704;SDS011;2366;51.332;6.610;2022-12-29T15:23:02;10.50;;;1.70;;
4704;SDS011;2366;51.332;6.610;2022-12-29T15:25:34;13.57;;;2.78;;
4704;SDS011;2366;51.332;6.610;2022-12-29T15:28:02;4.00;;;2.15;;
4704;SDS011;2366;51.332;6.610;2022-12-29T15:30:29;3.20;;;1.70;;
4704;SDS011;2366;51.332;6.610;2022-12-29T15:32:54;10.60;;;1.70;;
4704;SDS011;2366;51.332;6.610;2022-12-29T15:35:34;6.90;;;1.83;;
4704;SDS011;2366;51.332;6.610;2022-12-29T15:38:01;5.00;;;1.13;;
4704;SDS011;2366;51.332;6.610;2022-12-29T15:40:40;8.90;;;1.80;;
4704;SDS011;2366;51.332;6.610;2022-12-29T15:45:53;5.80;;;1.58;;
4704;SDS011;2366;51.332;6.610;2022-12-29T15:48:20;2.45;;;1.13;;
4704;SDS011;2366;51.332;6.610;2022-12-29T15:50:47;2.15;;;1.25;;
4704;SDS011;2366;51.332;6.610;2022-12-29T15:55:53;10.32;;;1.55;;
4704;SDS011;2366;51.332;6.610;2022-12-29T15:58:25;9.02;;;2.13;;
4704;SDS011;2366;51.332;6.610;2022-12-29T16:00:57;6.93;;;1.60;;
4704;SDS011;2366;51.332;6.610;2022-12-29T16:03:27;11.93;;;1.63;;
4704;SDS011;2366;51.332;6.610;2022-12-29T16:06:06;7.32;;;2.25;;
4704;SDS011;2366;51.332;6.610;2022-12-29T16:08:55;8.60;;;1.98;;
4704;SDS011;2366;51.332;6.610;2022-12-29T16:14:15;5.40;;;1.55;;
4704;SDS011;2366;51.332;6.610;2022-12-29T16:16:43;12.05;;;3.42;;
4704;SDS011;2366;51.332;6.610;2022-12-29T16:21:48;3.70;;;1.40;;
4704;SDS011;2366;51.332;6.610;2022-12-29T16:24:20;5.20;;;1.73;;
4704;SDS011;2366;51.332;6.610;2022-12-29T16:26:52;5.57;;;1.80;;
4704;SDS011;2366;51.332;6.610;2022-12-29T16:29:27;6.00;;;1.50;;
4704;SDS011;2366;51.332;6.610;2022-12-29T16:31:56;8.27;;;2.22;;
4704;SDS011;2366;51.332;6.610;2022-12-29T16:34:32;7.07;;;2.30;;
4704;SDS011;2366;51.332;6.610;2022-12-29T16:39:56;9.40;;;2.70;;
4704;SDS011;2366;51.332;6.610;2022-12-29T16:50:30;5.80;;;3.05;;
4704;SDS011;2366;51.332;6.610;2022-12-29T16:52:56;15.50;;;3.92;;
4704;SDS011;2366;51.332;6.610;2022-12-29T16:55:22;7.60;;;3.00;;
4704;SDS011;2366;51.332;6.610;2022-12-29T16:57:48;5.50;;;2.00;;
4704;SDS011;2366;51.332;6.610;2022-12-29T17:00:22;5.57;;;2.58;;
4704;SDS011;2366;51.332;6.610;2022-12-29T17:02:50;3.00;;;1.33;;
4704;SDS011;2366;51.332;6.610;2022-12-29T17:05:18;4.68;;;1.65;;
4704;SDS011;2366;51.332;6.610;2022-12-29T17:07:44;2.40;;;1.93;;
4704;SDS011;2366;51.332;6.610;2022-12-29T17:10:10;3.60;;;1.23;;
4704;SDS011;2366;51.332;6.610;2022-12-29T17:12:37;3.25;;;1.02;;
4704;SDS011;2366;51.332;6.610;2022-12-29T17:17:40;3.38;;;1.20;;
4704;SDS011;2366;51.332;6.610;2022-12-29T17:20:15;3.13;;;1.42;;
4704;SDS011;2366;51.332;6.610;2022-12-29T17:22:43;4.35;;;2.20;;
4704;SDS011;2366;51.332;6.610;2022-12-29T17:25:12;1.50;;;1.33;;
4704;SDS011;2366;51.332;6.610;2022-12-29T17:27:49;3.67;;;1.52;;
4704;SDS011;2366;51.332;6.610;2022-12-29T17:30:20;2.53;;;1.40;;
4704;SDS011;2366;51.332;6.610;2022-12-29T17:32:51;5.50;;;1.20;;
4704;SDS011;2366;51.332;6.610;2022-12-29T17:35:19;2.60;;;1.73;;
4704;SDS011;2366;51.332;6.610;2022-12-29T17:37:46;1.70;;;1.35;;
4704;SDS011;2366;51.332;6.610;2022-12-29T17:40:14;3.30;;;1.27;;
4704;SDS011;2366;51.332;6.610;2022-12-29T17:42:44;2.35;;;1.50;;
4704;SDS011;2366;51.332;6.610;2022-12-29T17:45:15;4.72;;;1.38;;
4704;SDS011;2366;51.332;6.610;2022-12-29T17:47:42;9.68;;;4.68;;
4704;SDS011;2366;51.332;6.610;2022-12-29T17:50:18;8.67;;;4.60;;
4704;SDS011;2366;51.332;6.610;2022-12-29T17:52:56;7.65;;;2.70;;
4704;SDS011;2366;51.332;6.610;2022-12-29T17:55:23;1.92;;;1.48;;
4704;SDS011;2366;51.332;6.610;2022-12-29T17:57:50;2.47;;;1.75;;
4704;SDS011;2366;51.332;6.610;2022-12-29T18:02:48;1.95;;;1.60;;
4704;SDS011;2366;51.332;6.610;2022-12-29T18:05:18;4.43;;;1.33;;